Church Hill, Tennessee
Current Conditions -  °F | °C
As of 4:53 AM on Wednesday 22 Oct 2014 (Local Time) from KTRI Reporting Station
Overcast Overcast  
Wind Chill: 44°   Ceiling: 4500
Heat Index: 47°   Visibility: 10mi
Dew Point: 39°   Wind: 6mph
Humidity: 74%   Direction: 20°NNE
Pressure: 30.1"   Gusts: NA
Location:  36.52°N, 82.71°W
Report Text: KTRI 220853Z 02005KT 10SM OVC045 08/04 A3010 RMK AO2 SLP179 T00830039 53008
Loading
Personal Weather Stations






























Interactive Weather Map
Tropical Storm Tracking
New forecast layout! Learn more

10-Day Weather Forecast

Advertisements
Track Severe Weather on mobile